createdAt,value
2022-11-05T00:02:53.887Z,5.40
2022-11-05T00:06:15.018Z,6.00
2022-11-05T00:09:31.079Z,4.97
2022-11-05T00:12:52.114Z,5.30
2022-11-05T00:16:13.539Z,4.93
2022-11-05T00:19:16.840Z,4.60
2022-11-05T00:22:38.274Z,3.92
2022-11-05T00:25:43.003Z,4.40
2022-11-05T00:28:48.298Z,4.57
2022-11-05T00:31:52.124Z,4.57
2022-11-05T00:34:56.191Z,4.40
2022-11-05T00:37:59.907Z,4.40
2022-11-05T00:41:05.258Z,3.80
2022-11-05T00:44:26.304Z,4.10
2022-11-05T00:47:48.398Z,4.32
2022-11-05T00:50:51.987Z,3.10
2022-11-05T00:53:55.746Z,3.63
2022-11-05T00:57:04.486Z,3.80
2022-11-05T01:00:10.369Z,3.15
2022-11-05T01:03:16.854Z,2.85
2022-11-05T01:06:20.634Z,2.87
2022-11-05T01:09:24.027Z,2.60
2022-11-05T01:12:29.061Z,3.83
2022-11-05T01:15:32.346Z,2.88
2022-11-05T01:18:38.812Z,3.05
2022-11-05T01:21:42.102Z,3.67
2022-11-05T01:24:45.683Z,3.08
2022-11-05T01:27:51.022Z,2.78
2022-11-05T01:30:57.286Z,2.80
2022-11-05T01:34:01.835Z,2.67
2022-11-05T01:37:05.900Z,2.30
2022-11-05T01:40:12.777Z,2.60
2022-11-05T01:43:20.523Z,3.30
2022-11-05T01:46:32.582Z,2.28
2022-11-05T01:49:36.530Z,2.70
2022-11-05T01:52:40.458Z,2.67
2022-11-05T01:55:52.614Z,2.38
2022-11-05T01:59:04.352Z,2.65
2022-11-05T02:02:09.846Z,2.15
2022-11-05T02:05:15.884Z,2.58
2022-11-05T02:08:35.318Z,2.63
2022-11-05T02:11:38.608Z,2.20
2022-11-05T02:14:43.465Z,2.28
2022-11-05T02:18:07.346Z,2.25
2022-11-05T02:21:56.511Z,2.95
2022-11-05T02:25:47.909Z,2.37
2022-11-05T02:29:28.352Z,1.95
2022-11-05T02:32:58.956Z,2.13
2022-11-05T02:36:24.175Z,2.53
2022-11-05T02:39:43.354Z,2.28
2022-11-05T02:43:02.458Z,2.00
2022-11-05T02:46:28.894Z,2.13
2022-11-05T02:49:49.567Z,2.22
2022-11-05T02:53:02.254Z,2.50
2022-11-05T02:56:15.334Z,2.00
2022-11-05T02:59:18.627Z,1.83
2022-11-05T03:02:22.416Z,2.55
2022-11-05T03:05:41.621Z,2.28
2022-11-05T03:09:19.354Z,2.08
2022-11-05T03:12:35.351Z,1.98
2022-11-05T03:15:57.603Z,2.00
2022-11-05T03:19:12.985Z,2.17
2022-11-05T03:22:27.064Z,1.92
2022-11-05T03:25:34.207Z,1.50
2022-11-05T03:28:44.511Z,1.67
2022-11-05T03:31:51.499Z,1.57
2022-11-05T03:35:05.797Z,2.17
2022-11-05T03:38:18.106Z,1.80
2022-11-05T03:41:26.021Z,1.83
2022-11-05T03:44:37.557Z,1.70
2022-11-05T03:47:45.632Z,1.80
2022-11-05T03:51:01.965Z,1.67
2022-11-05T03:54:08.031Z,1.98
2022-11-05T03:57:20.696Z,1.63
2022-11-05T04:00:24.605Z,1.50
2022-11-05T04:03:27.931Z,1.53
2022-11-05T04:06:49.383Z,1.40
2022-11-05T04:10:11.506Z,1.90
2022-11-05T04:13:27.746Z,1.75
2022-11-05T04:16:48.652Z,1.58
2022-11-05T04:20:10.195Z,1.37
2022-11-05T04:23:31.498Z,1.30
2022-11-05T04:26:37.360Z,1.17
2022-11-05T04:29:58.411Z,1.73
2022-11-05T04:33:05.938Z,1.80
2022-11-05T04:36:09.921Z,1.43
2022-11-05T04:39:13.647Z,1.35
2022-11-05T04:42:18.723Z,1.45
2022-11-05T04:45:22.562Z,2.00
2022-11-05T04:48:25.780Z,1.45
2022-11-05T04:51:29.697Z,1.30
2022-11-05T04:54:33.113Z,1.52
2022-11-05T04:57:38.678Z,1.55
2022-11-05T05:00:42.202Z,1.50
2022-11-05T05:03:49.231Z,1.73
2022-11-05T05:06:52.746Z,1.90
2022-11-05T05:09:56.569Z,1.63
2022-11-05T05:13:01.361Z,1.48
2022-11-05T05:16:08.165Z,1.40
2022-11-05T05:19:11.680Z,1.73
2022-11-05T05:22:14.389Z,1.60
2022-11-05T05:25:17.769Z,1.63
2022-11-05T05:28:22.863Z,1.50
2022-11-05T05:31:26.387Z,1.48
2022-11-05T05:34:29.954Z,1.60
2022-11-05T05:37:33.326Z,1.37
2022-11-05T05:40:37.123Z,1.90
2022-11-05T05:43:42.348Z,1.20
2022-11-05T05:46:46.030Z,1.30
2022-11-05T05:49:49.358Z,1.50
2022-11-05T05:52:52.894Z,1.97
2022-11-05T05:55:57.006Z,1.45
2022-11-05T05:59:02.017Z,1.38
2022-11-05T06:02:05.592Z,1.25
2022-11-05T06:05:10.036Z,1.65
2022-11-05T06:08:13.293Z,1.60
2022-11-05T06:11:17.375Z,2.08
2022-11-05T06:14:22.122Z,1.60
2022-11-05T06:17:26.019Z,1.40
2022-11-05T06:20:29.207Z,1.70
2022-11-05T06:23:34.399Z,1.57
2022-11-05T06:26:42.759Z,1.40
2022-11-05T06:29:47.776Z,1.20
2022-11-05T06:32:51.608Z,1.30
2022-11-05T06:35:56.084Z,1.30
2022-11-05T06:38:59.455Z,1.00
2022-11-05T06:42:17.789Z,0.88
2022-11-05T06:45:23.252Z,1.35
2022-11-05T06:48:26.715Z,1.20
2022-11-05T06:51:30.263Z,1.13
2022-11-05T06:54:33.876Z,1.20
2022-11-05T06:57:39.725Z,1.27
2022-11-05T07:00:44.805Z,0.98
2022-11-05T07:03:49.011Z,1.30
2022-11-05T07:06:52.547Z,1.20
2022-11-05T07:09:55.849Z,1.20
2022-11-05T07:13:02.490Z,1.40
2022-11-05T07:16:11.476Z,0.90
2022-11-05T07:19:14.985Z,1.25
2022-11-05T07:22:18.455Z,1.45
2022-11-05T07:25:22.671Z,0.90
2022-11-05T07:28:26.815Z,1.30
2022-11-05T07:31:33.096Z,0.95
2022-11-05T07:34:36.478Z,1.55
2022-11-05T07:37:45.113Z,1.13
2022-11-05T07:40:48.543Z,0.83
2022-11-05T07:43:52.217Z,1.05
2022-11-05T07:46:57.031Z,1.17
2022-11-05T07:50:00.778Z,1.17
2022-11-05T07:53:07.115Z,1.42
2022-11-05T07:56:12.127Z,1.00
2022-11-05T07:59:15.485Z,1.35
2022-11-05T08:02:20.676Z,0.95
2022-11-05T08:05:24.136Z,1.20
2022-11-05T08:08:27.683Z,1.05
2022-11-05T08:11:31.029Z,1.00
2022-11-05T08:14:34.562Z,1.00
2022-11-05T08:17:39.421Z,1.05
2022-11-05T08:20:45.195Z,0.90
2022-11-05T08:23:48.540Z,1.15
2022-11-05T08:26:52.077Z,0.93
2022-11-05T08:29:55.374Z,1.27
2022-11-05T08:33:02.785Z,0.88
2022-11-05T08:36:06.921Z,1.02
2022-11-05T08:39:15.834Z,0.90
2022-11-05T08:42:20.161Z,0.77
2022-11-05T08:45:24.718Z,0.88
2022-11-05T08:48:29.729Z,0.82
2022-11-05T08:51:33.414Z,1.20
2022-11-05T08:54:37.297Z,1.10
2022-11-05T08:57:40.719Z,1.33
2022-11-05T09:00:47.679Z,1.08
2022-11-05T09:03:54.261Z,0.80
2022-11-05T09:06:57.441Z,1.25
2022-11-05T09:10:01.128Z,1.00
2022-11-05T09:13:05.312Z,1.03
2022-11-05T09:16:20.538Z,0.75
2022-11-05T09:19:25.199Z,1.25
2022-11-05T09:22:28.709Z,1.00
2022-11-05T09:25:32.979Z,1.30
2022-11-05T09:28:36.567Z,1.00
2022-11-05T09:31:42.131Z,1.33
2022-11-05T09:34:48.941Z,1.00
2022-11-05T09:37:54.549Z,0.93
2022-11-05T09:41:06.005Z,1.15
2022-11-05T09:44:17.549Z,1.00
2022-11-05T09:47:28.232Z,1.35
2022-11-05T09:50:40.133Z,0.95
2022-11-05T09:53:47.253Z,1.23
2022-11-05T09:56:50.676Z,1.05
2022-11-05T09:59:59.527Z,0.90
2022-11-05T10:03:09.391Z,0.73
2022-11-05T10:06:21.174Z,1.00
2022-11-05T10:09:31.156Z,1.23
2022-11-05T10:12:45.165Z,1.00
2022-11-05T10:16:01.071Z,0.97
2022-11-05T10:19:10.874Z,0.90
2022-11-05T10:22:19.695Z,1.20
2022-11-05T10:25:28.618Z,0.80
2022-11-05T10:28:35.327Z,0.80
2022-11-05T10:31:39.240Z,0.93
2022-11-05T10:34:43.779Z,0.90
2022-11-05T10:37:49.647Z,0.60
2022-11-05T10:41:09.629Z,1.15
2022-11-05T10:44:31.692Z,1.15
2022-11-05T10:47:59.219Z,1.00
2022-11-05T10:51:03.019Z,1.15
2022-11-05T10:54:20.359Z,1.00
2022-11-05T10:57:35.292Z,1.17
2022-11-05T11:00:40.096Z,0.82
2022-11-05T11:03:47.783Z,0.90
2022-11-05T11:06:54.989Z,0.70
2022-11-05T11:10:03.981Z,1.02
2022-11-05T11:13:20.716Z,0.80
2022-11-05T11:16:27.368Z,0.95
2022-11-05T11:19:34.252Z,0.90
2022-11-05T11:22:37.863Z,0.90
2022-11-05T11:25:48.993Z,1.02
2022-11-05T11:29:00.602Z,1.08
2022-11-05T11:32:04.017Z,1.00
2022-11-05T11:35:19.674Z,1.20
2022-11-05T11:38:26.236Z,1.00
2022-11-05T11:41:36.050Z,0.80
2022-11-05T11:44:45.662Z,0.95
2022-11-05T11:47:51.171Z,1.35
2022-11-05T11:50:54.774Z,1.13
2022-11-05T11:54:00.946Z,0.77
2022-11-05T11:57:23.301Z,0.75
2022-11-05T12:00:27.161Z,1.00
2022-11-05T12:03:41.164Z,0.90
2022-11-05T12:06:56.449Z,0.87
2022-11-05T12:10:28.040Z,1.08
2022-11-05T12:13:59.679Z,0.80
2022-11-05T12:17:20.798Z,0.68
2022-11-05T12:20:59.712Z,1.33
2022-11-05T12:24:30.693Z,0.80
2022-11-05T12:27:58.668Z,1.50
2022-11-05T12:31:21.053Z,1.25
2022-11-05T12:34:46.013Z,1.10
2022-11-05T12:37:59.887Z,1.50
2022-11-05T12:41:20.283Z,1.17
2022-11-05T12:44:53.062Z,1.20
2022-11-05T12:48:35.793Z,2.00
2022-11-05T12:52:05.245Z,1.90
2022-11-05T12:55:17.619Z,1.02
2022-11-05T12:58:29.318Z,1.47
2022-11-05T13:01:40.889Z,1.35
2022-11-05T13:04:54.554Z,1.60
2022-11-05T13:08:04.688Z,1.67
2022-11-05T13:11:20.917Z,2.65
2022-11-05T13:14:31.860Z,1.80
2022-11-05T13:17:54.666Z,1.70
2022-11-05T13:21:06.524Z,1.05
2022-11-05T13:24:20.870Z,1.40
2022-11-05T13:27:49.057Z,1.40
2022-11-05T13:30:57.303Z,1.97
2022-11-05T13:34:10.739Z,1.40
2022-11-05T13:37:43.161Z,1.63
2022-11-05T13:41:15.763Z,1.60
2022-11-05T13:45:04.296Z,1.90
2022-11-05T13:49:01.228Z,1.93
2022-11-05T13:52:33.725Z,2.38
2022-11-05T13:56:02.554Z,2.05
2022-11-05T13:59:52.054Z,2.67
2022-11-05T14:03:02.814Z,2.65
2022-11-05T14:06:09.920Z,2.80
2022-11-05T14:09:27.880Z,3.47
2022-11-05T14:12:36.949Z,2.85
2022-11-05T14:15:40.712Z,2.25
2022-11-05T14:18:47.764Z,2.35
2022-11-05T14:21:53.429Z,2.60
2022-11-05T14:24:58.783Z,3.42
2022-11-05T14:28:02.423Z,3.42
2022-11-05T14:31:40.995Z,2.03
2022-11-05T14:34:54.918Z,1.80
2022-11-05T14:38:00.775Z,1.90
2022-11-05T14:41:06.761Z,1.65
2022-11-05T14:44:13.341Z,2.05
2022-11-05T14:47:25.932Z,1.40
2022-11-05T14:50:38.585Z,1.27
2022-11-05T14:53:42.288Z,1.33
2022-11-05T14:56:56.350Z,1.50
2022-11-05T15:00:00.951Z,1.05
2022-11-05T15:03:47.442Z,1.05
2022-11-05T15:07:34.709Z,1.10
2022-11-05T15:10:40.220Z,1.57
2022-11-05T15:14:04.883Z,1.90
2022-11-05T15:17:22.429Z,1.40
2022-11-05T15:20:40.261Z,1.75
2022-11-05T15:23:47.110Z,1.80
2022-11-05T15:27:03.770Z,1.27
2022-11-05T15:30:18.150Z,1.25
2022-11-05T15:33:23.202Z,1.70
2022-11-05T15:36:30.459Z,1.65
2022-11-05T15:39:43.215Z,1.50
2022-11-05T15:42:46.635Z,1.40
2022-11-05T15:46:08.177Z,1.23
2022-11-05T15:49:11.954Z,1.60
2022-11-05T15:52:18.398Z,2.25
2022-11-05T15:55:25.129Z,1.85
2022-11-05T15:58:29.154Z,1.50
2022-11-05T16:01:38.199Z,1.58
2022-11-05T16:04:48.470Z,1.67
2022-11-05T16:07:52.324Z,2.13
2022-11-05T16:11:00.023Z,1.70
2022-11-05T16:14:18.566Z,2.00
2022-11-05T16:17:27.128Z,2.17
2022-11-05T16:20:34.111Z,1.85
2022-11-05T16:23:45.766Z,2.13
2022-11-05T16:27:04.204Z,2.50
2022-11-05T16:30:19.521Z,2.30
2022-11-05T16:33:26.369Z,2.50
2022-11-05T16:36:33.669Z,2.45
2022-11-05T16:39:37.302Z,2.55
2022-11-05T16:42:42.214Z,2.58
2022-11-05T16:45:45.710Z,2.90
2022-11-05T16:48:51.060Z,2.50
2022-11-05T16:51:54.271Z,2.15
2022-11-05T16:54:57.867Z,2.83
2022-11-05T16:58:01.850Z,2.05
2022-11-05T17:01:12.449Z,1.60
2022-11-05T17:04:17.285Z,10.27
2022-11-05T17:07:21.078Z,43.60
2022-11-05T17:10:27.236Z,31.05
2022-11-05T17:13:30.869Z,15.00
2022-11-05T17:16:34.379Z,13.35
2022-11-05T17:19:42.409Z,11.82
2022-11-05T17:22:46.198Z,12.35
2022-11-05T17:25:52.827Z,12.38
2022-11-05T17:28:56.113Z,11.77
2022-11-05T17:31:59.760Z,13.27
2022-11-05T17:35:05.115Z,10.02
2022-11-05T17:38:10.976Z,10.40
2022-11-05T17:41:17.088Z,10.18
2022-11-05T17:44:20.520Z,10.43
2022-11-05T17:47:24.699Z,9.43
2022-11-05T17:50:48.623Z,9.43
2022-11-05T17:53:52.731Z,8.63
2022-11-05T17:56:56.263Z,9.10
2022-11-05T17:59:59.626Z,9.20
2022-11-05T18:03:03.295Z,9.40
2022-11-05T18:06:08.562Z,7.45
2022-11-05T18:09:13.976Z,9.43
2022-11-05T18:12:17.465Z,8.23
2022-11-05T18:15:21.631Z,8.37
2022-11-05T18:18:25.216Z,6.78
2022-11-05T18:21:30.091Z,7.70
2022-11-05T18:24:33.669Z,7.55
2022-11-05T18:27:37.431Z,7.30
2022-11-05T18:30:40.739Z,7.63
2022-11-05T18:33:44.830Z,8.35
2022-11-05T18:36:55.021Z,7.65
2022-11-05T18:39:59.788Z,6.50
2022-11-05T18:43:03.418Z,6.90
2022-11-05T18:46:07.664Z,7.13
2022-11-05T18:49:12.908Z,6.07
2022-11-05T18:52:18.272Z,6.07
2022-11-05T18:55:22.042Z,7.03
2022-11-05T18:58:25.717Z,6.90
2022-11-05T19:01:30.863Z,5.93
2022-11-05T19:04:36.601Z,6.10
2022-11-05T19:07:41.462Z,5.53
2022-11-05T19:10:49.618Z,6.75
2022-11-05T19:13:53.245Z,6.80
2022-11-05T19:16:56.913Z,5.27
2022-11-05T19:20:00.323Z,5.10
2022-11-05T19:23:07.947Z,4.88
2022-11-05T19:26:15.568Z,5.70
2022-11-05T19:29:19.364Z,5.10
2022-11-05T19:32:22.798Z,5.70
2022-11-05T19:35:26.767Z,5.78
2022-11-05T19:38:31.424Z,4.00
2022-11-05T19:41:35.172Z,5.65
2022-11-05T19:44:38.993Z,5.15
2022-11-05T19:47:42.494Z,4.47
2022-11-05T19:50:45.963Z,4.80
2022-11-05T19:53:52.775Z,4.18
2022-11-05T19:56:56.107Z,4.45
2022-11-05T19:59:59.614Z,4.25
2022-11-05T20:03:03.421Z,3.70
2022-11-05T20:06:10.121Z,3.58
2022-11-05T20:09:23.552Z,3.92
2022-11-05T20:12:27.162Z,4.03
2022-11-05T20:15:30.441Z,3.33
2022-11-05T20:18:34.510Z,3.73
2022-11-05T20:21:38.272Z,3.45
2022-11-05T20:24:43.391Z,3.42
2022-11-05T20:27:46.689Z,3.72
2022-11-05T20:30:50.292Z,3.45
2022-11-05T20:33:54.463Z,3.40
2022-11-05T20:36:58.120Z,3.90
2022-11-05T20:40:03.087Z,3.28
2022-11-05T20:43:06.754Z,3.83
2022-11-05T20:46:14.149Z,3.00
2022-11-05T20:49:24.005Z,3.33
2022-11-05T20:52:29.457Z,2.95
2022-11-05T20:55:40.937Z,3.53
2022-11-05T20:58:44.238Z,3.28
2022-11-05T21:01:48.055Z,3.03
2022-11-05T21:04:51.995Z,3.00
2022-11-05T21:07:55.739Z,2.97
2022-11-05T21:11:01.569Z,3.58
2022-11-05T21:14:05.205Z,3.22
2022-11-05T21:17:10.335Z,3.80
2022-11-05T21:20:14.001Z,4.73
2022-11-05T21:23:18.431Z,4.03
2022-11-05T21:26:23.424Z,3.53
2022-11-05T21:29:26.870Z,3.38
2022-11-05T21:32:30.575Z,3.58
2022-11-05T21:35:34.388Z,2.67
2022-11-05T21:38:38.862Z,2.88
2022-11-05T21:41:43.756Z,2.92
2022-11-05T21:44:47.459Z,3.35
2022-11-05T21:47:51.169Z,2.95
2022-11-05T21:51:12.429Z,2.53
2022-11-05T21:54:33.567Z,2.80
2022-11-05T21:57:56.659Z,2.35
2022-11-05T22:01:02.397Z,2.78
2022-11-05T22:04:06.243Z,3.53
2022-11-05T22:07:13.967Z,2.00
2022-11-05T22:10:17.318Z,2.80
2022-11-05T22:13:22.153Z,2.65
2022-11-05T22:16:25.836Z,2.53
2022-11-05T22:19:30.640Z,2.13
2022-11-05T22:22:35.242Z,2.57
2022-11-05T22:25:38.796Z,3.92
2022-11-05T22:28:43.857Z,2.70
2022-11-05T22:31:47.384Z,2.65
2022-11-05T22:34:50.907Z,2.63
2022-11-05T22:37:54.201Z,3.23
2022-11-05T22:40:58.095Z,2.50
2022-11-05T22:44:03.566Z,2.58
2022-11-05T22:47:08.137Z,2.78
2022-11-05T22:50:12.758Z,2.58
2022-11-05T22:53:16.346Z,2.50
2022-11-05T22:56:22.755Z,2.83
2022-11-05T22:59:27.764Z,2.10
2022-11-05T23:02:31.177Z,2.38
2022-11-05T23:05:34.668Z,2.25
2022-11-05T23:08:55.510Z,2.63
2022-11-05T23:11:59.338Z,1.70
2022-11-05T23:15:07.913Z,2.50
2022-11-05T23:18:28.777Z,2.30
2022-11-05T23:21:49.755Z,2.50
2022-11-05T23:24:53.543Z,2.10
2022-11-05T23:27:57.183Z,2.28
2022-11-05T23:31:19.509Z,2.03
2022-11-05T23:34:22.909Z,2.67
2022-11-05T23:37:47.547Z,2.13
2022-11-05T23:41:08.450Z,1.80
2022-11-05T23:44:29.992Z,1.73
2022-11-05T23:47:52.261Z,1.90
2022-11-05T23:51:02.827Z,2.15
2022-11-05T23:54:06.279Z,2.92
2022-11-05T23:57:09.789Z,1.93
